Sheffield, IA (50475)

10:01 AM CDT on September 22, 2014 (GMT -0500)
Beeds Addition | Change Station
CLOSE
Current Station
Personal Weather Station
Location: Hampton, IA
Elevation: 1145 ft
Nearby Weather Stations

Elev 1145 ft 42.74 °N, 93.20 °W | Updated 4 seconds ago

Clear
Clear
59.7 °F
Feels Like 59.7 °F
N
4.5
Wind Variable Wind from West
Gusts 9.2 mph

Today
High -- | Low -- °F
--% Chance of Precip.
Yesterday
High -- | Low -- °F
Precip. -- in
7:00 AM 7:10 PM
Waning Crescent, 3% visible
Pressure 30.32 in
Visibility 9.0 miles
Clouds Clear
Dew Point 56 °F
Humidity 88%
Rainfall 0.00 in
Snow Depth Not available.
UV 3 out of 12
Pollen 3.50 out of 12
Air Quality Not available.
Flu Activity Not available.
METAR KMCW 221453Z AUTO 26006KT 9SM CLR 14/11 A3032 RMK AO2 SLP266 T01390111 51009

More Conditions Fewer Conditions

Pressure 30.32 in
Visibility 9.0 miles
Clouds Clear
Dew Point 56 °F
Humidity 88%
Rainfall 0.00 in
Snow Depth Not available.
UV 3 out of 12
Pollen 3.50 out of 12
Air Quality Not available.
Flu Activity Not available.
METAR KMCW 221453Z AUTO 26006KT 9SM CLR 14/11 A3032 RMK AO2 SLP266 T01390111 51009

More Conditions Fewer Conditions

10-Day Weather Forecast

Almanac

Astronomy

Sep. 22, 2014 Rise Set
Actual Time 7:00 AM CDT 7:10 PM CDT
Civil Twilight 6:31 AM CDT 7:38 PM CDT
Nautical Twilight 5:58 AM CDT 8:11 PM CDT
Astronomical Twilight 5:24 AM CDT 8:45 PM CDT
Moon 5:27 AM CDT 6:18 PM CDT
Length of Visible Light 13h 06m
Length of Day
12h 09m
Tomorrow will be 2m 54s shorter.
Waning Crescent, 3% of the Moon is Illuminated
Today
Waning Crescent
Sep 24
New
Oct 1
First Quarter
Oct 8
Full
Oct 15
Last Quarter

Today's Extremes

State Highs State Lows

Community

WunderPhotos

Upload Photos

1,755,463 photos uploaded!

WunderBlogs® & News

Nearby

Snow Depth

Station Depth Elevation
No new snow has been reported.

Earthquake Activity

City Distance Mag. Time & Date
No recent earthquake activity has been reported nearby.
Minimum magnitude displayed is 2.5.

Coastal Water Temperatures

Place Temperature
No Stations Reporting

Nearby Weather Stations